createdAt,value
2023-01-05T00:01:03.695Z,2.73
2023-01-05T00:03:31.038Z,2.80
2023-01-05T00:06:12.934Z,3.40
2023-01-05T00:08:40.723Z,3.67
2023-01-05T00:11:29.881Z,3.83
2023-01-05T00:14:15.480Z,2.73
2023-01-05T00:17:01.714Z,2.43
2023-01-05T00:19:47.777Z,2.60
2023-01-05T00:22:33.408Z,3.77
2023-01-05T00:25:12.661Z,3.00
2023-01-05T00:27:41.523Z,3.57
2023-01-05T00:30:13.556Z,2.43
2023-01-05T00:32:41.778Z,2.63
2023-01-05T00:35:09.848Z,2.77
2023-01-05T00:37:38.502Z,2.53
2023-01-05T00:40:11.303Z,2.23
2023-01-05T00:42:38.906Z,2.70
2023-01-05T00:45:08.163Z,2.67
2023-01-05T00:47:35.008Z,1.57
2023-01-05T00:50:01.971Z,2.23
2023-01-05T00:52:28.769Z,3.00
2023-01-05T00:54:55.857Z,3.07
2023-01-05T00:57:22.765Z,3.27
2023-01-05T00:59:49.547Z,2.50
2023-01-05T01:02:16.758Z,2.20
2023-01-05T01:04:43.631Z,1.60
2023-01-05T01:07:10.589Z,2.40
2023-01-05T01:09:37.484Z,1.70
2023-01-05T01:12:04.967Z,1.97
2023-01-05T01:14:32.072Z,2.00
2023-01-05T01:16:59.167Z,2.80
2023-01-05T01:19:27.125Z,2.40
2023-01-05T01:21:54.726Z,2.37
2023-01-05T01:24:27.593Z,2.33
2023-01-05T01:26:56.100Z,2.40
2023-01-05T01:29:23.993Z,1.60
2023-01-05T01:31:53.074Z,1.20
2023-01-05T01:34:20.473Z,1.40
2023-01-05T01:36:47.547Z,1.70
2023-01-05T01:39:15.421Z,2.93
2023-01-05T01:41:42.474Z,1.97
2023-01-05T01:44:47.084Z,1.87
2023-01-05T01:47:22.028Z,1.60
2023-01-05T01:49:49.626Z,1.40
2023-01-05T01:52:16.624Z,2.83
2023-01-05T01:54:43.497Z,1.53
2023-01-05T01:57:12.751Z,1.60
2023-01-05T01:59:40.071Z,1.47
2023-01-05T02:02:08.099Z,1.40
2023-01-05T02:04:38.147Z,1.00
2023-01-05T02:07:07.316Z,1.00
2023-01-05T02:09:34.411Z,0.80
2023-01-05T02:12:26.297Z,0.90
2023-01-05T02:15:05.071Z,1.10
2023-01-05T02:17:46.971Z,1.57
2023-01-05T02:20:39.170Z,1.17
2023-01-05T02:23:12.238Z,0.93
2023-01-05T02:25:54.427Z,1.30
2023-01-05T02:28:45.814Z,1.40
2023-01-05T02:31:14.515Z,1.00
2023-01-05T02:34:07.308Z,1.10
2023-01-05T02:36:54.223Z,1.57
2023-01-05T02:39:42.021Z,0.80
2023-01-05T02:42:33.016Z,0.80
2023-01-05T02:45:05.449Z,1.00
2023-01-05T02:47:38.294Z,0.80
2023-01-05T02:50:11.159Z,2.30
2023-01-05T02:52:50.151Z,0.90
2023-01-05T02:55:21.363Z,1.43
2023-01-05T02:58:03.816Z,0.80
2023-01-05T03:00:42.054Z,0.80
2023-01-05T03:03:16.059Z,0.90
2023-01-05T03:05:54.835Z,1.20
2023-01-05T03:08:32.033Z,1.40
2023-01-05T03:11:27.418Z,4.00
2023-01-05T03:14:18.721Z,2.03
2023-01-05T03:16:47.683Z,1.23
2023-01-05T03:19:36.203Z,1.20
2023-01-05T03:22:30.463Z,1.00
2023-01-05T03:25:15.800Z,0.80
2023-01-05T03:28:02.675Z,1.63
2023-01-05T03:31:25.859Z,0.90
2023-01-05T03:37:10.793Z,0.70
2023-01-05T03:39:42.002Z,0.70
2023-01-05T03:42:11.563Z,0.70
2023-01-05T03:44:39.599Z,0.80
2023-01-05T03:47:07.200Z,1.00
2023-01-05T03:49:34.583Z,1.00
2023-01-05T03:52:01.253Z,0.80
2023-01-05T03:54:27.971Z,1.10
2023-01-05T03:56:54.999Z,0.90
2023-01-05T03:59:21.700Z,0.90
2023-01-05T04:01:48.416Z,0.90
2023-01-05T04:04:15.561Z,1.20
2023-01-05T04:06:42.627Z,1.00
2023-01-05T04:09:09.323Z,1.00
2023-01-05T04:11:36.340Z,1.30
2023-01-05T04:14:03.378Z,1.20
2023-01-05T04:16:30.046Z,1.00
2023-01-05T04:18:57.105Z,1.17
2023-01-05T04:21:24.601Z,1.70
2023-01-05T04:23:51.203Z,1.30
2023-01-05T04:26:18.228Z,1.60
2023-01-05T04:28:44.838Z,1.40
2023-01-05T04:31:11.929Z,1.30
2023-01-05T04:33:40.444Z,1.07
2023-01-05T04:36:08.614Z,0.90
2023-01-05T04:38:35.754Z,2.20
2023-01-05T04:41:02.559Z,3.53
2023-01-05T04:43:29.241Z,4.33
2023-01-05T04:45:56.330Z,5.03
2023-01-05T04:48:22.984Z,5.80
2023-01-05T04:50:56.581Z,4.00
2023-01-05T04:53:23.964Z,7.70
2023-01-05T04:55:51.995Z,1.83
2023-01-05T04:58:19.798Z,3.80
2023-01-05T05:00:46.501Z,5.77
2023-01-05T05:03:13.164Z,3.13
2023-01-05T05:05:40.767Z,3.70
2023-01-05T05:08:07.403Z,2.77
2023-01-05T05:10:34.044Z,6.23
2023-01-05T05:13:03.573Z,4.17
2023-01-05T05:15:30.167Z,2.73
2023-01-05T05:17:57.243Z,8.17
2023-01-05T05:20:23.856Z,5.53
2023-01-05T05:22:50.467Z,3.60
2023-01-05T05:25:17.555Z,6.50
2023-01-05T05:27:44.619Z,3.20
2023-01-05T05:30:11.980Z,5.50
2023-01-05T05:32:43.993Z,8.53
2023-01-05T05:35:11.528Z,4.40
2023-01-05T05:37:38.147Z,5.43
2023-01-05T05:40:05.372Z,3.93
2023-01-05T05:42:32.573Z,5.63
2023-01-05T05:44:59.255Z,3.27
2023-01-05T05:47:26.302Z,5.87
2023-01-05T05:49:52.972Z,5.00
2023-01-05T05:52:19.595Z,5.47
2023-01-05T05:54:46.625Z,6.00
2023-01-05T05:57:13.669Z,3.83
2023-01-05T05:59:40.713Z,5.83
2023-01-05T06:02:07.947Z,9.40
2023-01-05T06:04:35.104Z,6.50
2023-01-05T06:07:01.722Z,6.13
2023-01-05T06:09:28.883Z,8.60
2023-01-05T06:11:55.542Z,6.17
2023-01-05T06:14:22.725Z,4.97
2023-01-05T06:16:50.017Z,5.40
2023-01-05T06:19:16.666Z,11.33
2023-01-05T06:21:43.300Z,5.20
2023-01-05T06:24:10.432Z,8.27
2023-01-05T06:26:37.466Z,4.60
2023-01-05T06:29:04.070Z,7.50
2023-01-05T06:31:30.701Z,4.47
2023-01-05T06:33:57.325Z,4.10
2023-01-05T06:36:23.937Z,5.70
2023-01-05T06:38:51.068Z,10.77
2023-01-05T06:41:17.684Z,7.03
2023-01-05T06:43:44.294Z,13.40
2023-01-05T06:46:11.360Z,7.40
2023-01-05T06:48:38.464Z,6.37
2023-01-05T06:51:08.734Z,10.10
2023-01-05T06:53:35.306Z,11.87
2023-01-05T06:56:02.313Z,3.43
2023-01-05T06:58:28.882Z,8.53
2023-01-05T07:00:55.969Z,7.80
2023-01-05T07:03:24.313Z,4.33
2023-01-05T07:05:51.926Z,8.87
2023-01-05T07:08:18.513Z,3.83
2023-01-05T07:10:45.522Z,5.87
2023-01-05T07:13:12.147Z,5.30
2023-01-05T07:15:39.211Z,9.10
2023-01-05T07:18:05.827Z,4.93
2023-01-05T07:20:32.464Z,7.87
2023-01-05T07:22:59.057Z,6.17
2023-01-05T07:25:31.737Z,7.00
2023-01-05T07:27:59.044Z,4.80
2023-01-05T07:30:25.612Z,10.03
2023-01-05T07:32:52.250Z,5.33
2023-01-05T07:35:18.860Z,7.17
2023-01-05T07:37:45.462Z,3.03
2023-01-05T07:40:12.976Z,5.50
2023-01-05T07:42:39.632Z,9.97
2023-01-05T07:45:06.995Z,5.07
2023-01-05T07:47:33.634Z,4.37
2023-01-05T07:50:00.449Z,7.70
2023-01-05T07:52:30.345Z,5.77
2023-01-05T07:54:58.647Z,7.60
2023-01-05T07:57:25.288Z,4.37
2023-01-05T07:59:52.357Z,6.43
2023-01-05T08:02:19.175Z,6.70
2023-01-05T08:04:47.190Z,10.33
2023-01-05T08:07:15.601Z,5.20
2023-01-05T08:13:07.209Z,5.23
2023-01-05T08:15:34.286Z,6.43
2023-01-05T08:18:00.867Z,7.20
2023-01-05T08:20:34.584Z,6.90
2023-01-05T08:23:01.659Z,6.43
2023-01-05T08:25:36.361Z,10.13
2023-01-05T08:28:03.068Z,9.70
2023-01-05T08:30:31.658Z,7.30
2023-01-05T08:32:58.287Z,9.70
2023-01-05T08:35:33.177Z,9.17
2023-01-05T08:37:59.812Z,8.13
2023-01-05T08:40:26.428Z,9.07
2023-01-05T08:42:53.071Z,5.37
2023-01-05T08:45:19.777Z,4.83
2023-01-05T08:47:46.395Z,5.00
2023-01-05T08:53:08.925Z,6.80
2023-01-05T08:55:35.943Z,6.47
2023-01-05T08:58:02.603Z,8.37
2023-01-05T09:00:29.626Z,6.47
2023-01-05T09:02:56.399Z,5.90
2023-01-05T09:05:23.131Z,9.90
2023-01-05T09:07:50.061Z,7.30
2023-01-05T09:10:16.775Z,6.33
2023-01-05T09:12:43.427Z,5.57
2023-01-05T09:15:10.386Z,5.53
2023-01-05T09:17:38.760Z,5.03
2023-01-05T09:20:07.697Z,6.23
2023-01-05T09:22:36.057Z,6.20
2023-01-05T09:25:04.367Z,9.53
2023-01-05T09:27:31.535Z,7.27
2023-01-05T09:29:58.242Z,12.07
2023-01-05T09:32:24.857Z,9.13
2023-01-05T09:34:51.861Z,9.90
2023-01-05T09:37:18.840Z,6.90
2023-01-05T09:39:46.890Z,5.03
2023-01-05T09:42:17.659Z,9.27
2023-01-05T09:44:52.671Z,6.43
2023-01-05T09:47:32.972Z,13.50
2023-01-05T09:50:00.933Z,11.13
2023-01-05T09:52:31.483Z,7.30
2023-01-05T09:55:04.241Z,7.80
2023-01-05T09:57:31.910Z,12.70
2023-01-05T10:00:06.387Z,8.67
2023-01-05T10:02:42.686Z,7.73
2023-01-05T10:05:13.774Z,7.70
2023-01-05T10:07:50.102Z,9.60
2023-01-05T10:10:46.781Z,8.53
2023-01-05T10:13:25.409Z,6.07
2023-01-05T10:15:54.942Z,4.57
2023-01-05T10:18:25.797Z,8.50
2023-01-05T10:21:15.416Z,10.50
2023-01-05T10:23:56.067Z,5.90
2023-01-05T10:26:45.223Z,6.10
2023-01-05T10:29:46.044Z,6.87
2023-01-05T10:32:51.027Z,6.83
2023-01-05T10:35:58.912Z,5.53
2023-01-05T10:38:26.215Z,5.60
2023-01-05T10:41:17.056Z,6.87
2023-01-05T10:44:02.860Z,6.70
2023-01-05T10:46:37.868Z,6.33
2023-01-05T10:49:07.711Z,6.23
2023-01-05T10:51:37.965Z,6.33
2023-01-05T10:54:05.800Z,6.50
2023-01-05T10:56:33.277Z,6.30
2023-01-05T10:59:08.880Z,7.27
2023-01-05T11:01:37.721Z,7.97
2023-01-05T11:04:33.362Z,4.40
2023-01-05T11:07:05.509Z,5.73
2023-01-05T11:09:32.364Z,5.93
2023-01-05T11:12:02.235Z,5.63
2023-01-05T11:14:57.849Z,7.27
2023-01-05T11:17:27.987Z,7.30
2023-01-05T11:19:57.049Z,7.57
2023-01-05T11:22:51.149Z,6.20
2023-01-05T11:25:31.223Z,6.37
2023-01-05T11:28:17.937Z,5.30
2023-01-05T11:31:00.073Z,5.50
2023-01-05T11:33:29.510Z,5.87
2023-01-05T11:35:58.818Z,8.07
2023-01-05T11:38:28.085Z,4.80
2023-01-05T11:40:56.816Z,6.10
2023-01-05T11:43:28.085Z,7.00
2023-01-05T11:45:59.386Z,5.37
2023-01-05T11:48:32.255Z,4.13
2023-01-05T11:50:58.946Z,7.60
2023-01-05T11:53:31.981Z,5.40
2023-01-05T11:56:07.460Z,2.27
2023-01-05T11:58:46.267Z,5.63
2023-01-05T12:05:15.421Z,5.57
2023-01-05T12:07:50.293Z,5.63
2023-01-05T12:10:47.763Z,4.97
2023-01-05T12:13:47.837Z,2.27
2023-01-05T12:16:35.008Z,4.17
2023-01-05T12:19:19.664Z,4.73
2023-01-05T12:22:09.939Z,5.90
2023-01-05T12:25:03.236Z,4.23
2023-01-05T12:28:40.537Z,4.47
2023-01-05T12:34:36.968Z,6.20
2023-01-05T12:37:19.542Z,4.43
2023-01-05T12:40:06.385Z,7.20
2023-01-05T12:42:48.731Z,5.77
2023-01-05T12:45:48.576Z,14.60
2023-01-05T12:48:46.252Z,13.00
2023-01-05T12:51:28.782Z,22.90
2023-01-05T12:54:02.203Z,8.73
2023-01-05T12:56:46.255Z,13.10
2023-01-05T12:59:33.822Z,11.60
2023-01-05T13:02:06.744Z,7.47
2023-01-05T13:04:56.085Z,10.80
2023-01-05T13:07:42.834Z,8.90
2023-01-05T13:10:21.245Z,8.03
2023-01-05T13:12:55.196Z,10.67
2023-01-05T13:15:38.833Z,16.97
2023-01-05T13:18:10.517Z,4.27
2023-01-05T13:20:45.786Z,9.57
2023-01-05T13:23:19.588Z,11.80
2023-01-05T13:25:51.034Z,6.13
2023-01-05T13:28:20.726Z,8.30
2023-01-05T13:31:04.995Z,5.87
2023-01-05T13:34:03.944Z,6.93
2023-01-05T13:37:09.284Z,4.07
2023-01-05T13:40:10.965Z,5.43
2023-01-05T13:42:49.636Z,10.33
2023-01-05T13:45:28.452Z,8.13
2023-01-05T13:48:38.267Z,12.03
2023-01-05T13:51:38.548Z,6.33
2023-01-05T13:54:19.889Z,4.80
2023-01-05T13:56:49.394Z,8.17
2023-01-05T13:59:39.799Z,5.63
2023-01-05T14:02:34.393Z,9.00
2023-01-05T14:05:01.400Z,9.10
2023-01-05T14:07:28.456Z,10.97
2023-01-05T14:09:57.172Z,9.10
2023-01-05T14:12:26.867Z,18.73
2023-01-05T14:15:09.490Z,20.17
2023-01-05T14:18:02.483Z,8.20
2023-01-05T14:20:38.185Z,5.63
2023-01-05T14:23:29.634Z,5.50
2023-01-05T14:26:00.840Z,4.13
2023-01-05T14:28:30.462Z,7.07
2023-01-05T14:31:11.199Z,4.50
2023-01-05T14:33:53.521Z,5.33
2023-01-05T14:36:26.170Z,5.27
2023-01-05T14:38:53.401Z,16.17
2023-01-05T14:41:26.724Z,13.90
2023-01-05T14:43:57.590Z,36.40
2023-01-05T14:46:26.896Z,5.03
2023-01-05T14:49:16.966Z,6.97
2023-01-05T14:51:56.319Z,8.33
2023-01-05T14:54:41.452Z,7.57
2023-01-05T14:57:26.733Z,13.37
2023-01-05T15:00:10.661Z,9.07
2023-01-05T15:03:15.371Z,7.20
2023-01-05T15:06:19.291Z,2.43
2023-01-05T15:08:49.204Z,4.47
2023-01-05T15:11:32.082Z,3.47
2023-01-05T15:14:30.689Z,5.77
2023-01-05T15:17:31.417Z,2.70
2023-01-05T15:20:38.777Z,7.63
2023-01-05T15:23:31.754Z,10.70
2023-01-05T15:26:17.086Z,9.87
2023-01-05T15:29:18.364Z,5.53
2023-01-05T15:32:14.284Z,4.50
2023-01-05T15:35:05.069Z,6.17
2023-01-05T15:37:35.604Z,7.07
2023-01-05T15:40:04.704Z,14.63
2023-01-05T15:42:34.153Z,5.27
2023-01-05T15:45:01.094Z,16.43
2023-01-05T15:47:29.365Z,10.43
2023-01-05T15:49:59.595Z,6.13
2023-01-05T15:52:36.767Z,9.43
2023-01-05T15:55:24.670Z,15.93
2023-01-05T15:57:58.590Z,6.30
2023-01-05T16:00:31.083Z,7.20
2023-01-05T16:03:35.250Z,8.70
2023-01-05T16:06:06.227Z,17.93
2023-01-05T16:08:54.614Z,6.93
2023-01-05T16:11:42.147Z,14.43
2023-01-05T16:14:19.174Z,25.40
2023-01-05T16:17:15.423Z,12.23
2023-01-05T16:19:47.742Z,6.63
2023-01-05T16:22:26.842Z,9.33
2023-01-05T16:25:11.812Z,8.87
2023-01-05T16:27:41.659Z,12.53
2023-01-05T16:30:28.150Z,17.20
2023-01-05T16:33:36.019Z,39.27
2023-01-05T16:36:17.433Z,42.50
2023-01-05T16:38:44.244Z,27.00
2023-01-05T16:41:23.444Z,56.97
2023-01-05T16:43:59.438Z,19.37
2023-01-05T16:46:40.852Z,6.43
2023-01-05T16:49:43.477Z,7.47
2023-01-05T16:52:24.274Z,7.63
2023-01-05T16:55:28.075Z,11.13
2023-01-05T16:57:56.133Z,12.70
2023-01-05T17:00:34.245Z,8.70
2023-01-05T17:03:02.638Z,8.40
2023-01-05T17:05:33.636Z,16.17
2023-01-05T17:08:19.817Z,10.77
2023-01-05T17:10:47.296Z,8.37
2023-01-05T17:13:20.744Z,9.80
2023-01-05T17:15:49.543Z,16.53
2023-01-05T17:20:51.282Z,22.77
2023-01-05T17:23:25.535Z,10.33
2023-01-05T17:26:32.233Z,7.57
2023-01-05T17:31:33.979Z,12.00
2023-01-05T17:34:00.819Z,21.23
2023-01-05T17:36:32.127Z,13.73
2023-01-05T17:39:10.385Z,15.77
2023-01-05T17:44:09.913Z,10.83
2023-01-05T17:46:55.616Z,21.10
2023-01-05T17:49:22.491Z,17.77
2023-01-05T17:51:50.097Z,19.57
2023-01-05T17:54:16.980Z,8.33
2023-01-05T17:56:43.599Z,40.27
2023-01-05T17:59:10.192Z,9.83
2023-01-05T18:01:37.133Z,21.60
2023-01-05T18:04:03.864Z,23.60
2023-01-05T18:06:30.589Z,12.77
2023-01-05T18:08:57.501Z,11.10
2023-01-05T18:11:24.209Z,14.63
2023-01-05T18:13:51.049Z,19.60
2023-01-05T18:16:17.913Z,14.93
2023-01-05T18:18:44.593Z,13.53
2023-01-05T18:21:11.361Z,13.63
2023-01-05T18:23:38.157Z,15.67
2023-01-05T18:26:07.027Z,14.17
2023-01-05T18:28:33.791Z,21.70
2023-01-05T18:31:01.099Z,12.27
2023-01-05T18:33:27.995Z,12.47
2023-01-05T18:38:21.854Z,6.93
2023-01-05T18:40:49.979Z,10.43
2023-01-05T18:43:17.350Z,16.97
2023-01-05T18:45:44.339Z,13.47
2023-01-05T18:48:11.264Z,25.53
2023-01-05T18:50:44.423Z,17.47
2023-01-05T18:53:11.907Z,10.03
2023-01-05T18:55:42.788Z,13.90
2023-01-05T18:58:10.875Z,9.13
2023-01-05T19:00:45.879Z,10.30
2023-01-05T19:03:12.850Z,10.30
2023-01-05T19:05:44.132Z,10.60
2023-01-05T19:08:12.751Z,13.53
2023-01-05T19:10:40.119Z,11.03
2023-01-05T19:13:07.222Z,11.07
2023-01-05T19:15:35.321Z,13.40
2023-01-05T19:18:02.919Z,17.20
2023-01-05T19:20:31.617Z,9.40
2023-01-05T19:22:59.905Z,7.80
2023-01-05T19:25:26.822Z,10.47
2023-01-05T19:27:53.516Z,9.70
2023-01-05T19:30:22.016Z,12.33
2023-01-05T19:32:48.917Z,9.37
2023-01-05T19:35:15.936Z,11.67
2023-01-05T19:37:42.638Z,10.87
2023-01-05T19:40:10.739Z,9.43
2023-01-05T19:42:38.925Z,12.83
2023-01-05T19:45:06.132Z,8.37
2023-01-05T19:47:32.716Z,12.00
2023-01-05T19:49:59.382Z,12.40
2023-01-05T19:52:29.621Z,11.43
2023-01-05T19:54:56.568Z,9.90
2023-01-05T19:57:23.550Z,12.23
2023-01-05T19:59:51.418Z,18.43
2023-01-05T20:02:18.513Z,11.80
2023-01-05T20:04:46.980Z,14.47
2023-01-05T20:07:14.073Z,27.47
2023-01-05T20:09:41.005Z,11.93
2023-01-05T20:12:14.299Z,6.90
2023-01-05T20:14:41.856Z,19.40
2023-01-05T20:17:10.123Z,10.30
2023-01-05T20:19:37.867Z,11.83
2023-01-05T20:22:06.144Z,10.27
2023-01-05T20:24:36.093Z,8.67
2023-01-05T20:27:11.895Z,7.93
2023-01-05T20:29:40.305Z,8.80
2023-01-05T20:32:11.047Z,11.23
2023-01-05T20:34:39.448Z,12.90
2023-01-05T20:37:08.235Z,16.13
2023-01-05T20:39:36.638Z,11.37
2023-01-05T20:42:05.116Z,12.83
2023-01-05T20:44:35.722Z,9.60
2023-01-05T20:47:03.656Z,13.13
2023-01-05T20:49:30.731Z,15.57
2023-01-05T20:51:57.853Z,6.07
2023-01-05T20:54:25.051Z,15.27
2023-01-05T20:56:52.287Z,14.90
2023-01-05T20:59:30.348Z,10.60
2023-01-05T21:01:58.515Z,15.73
2023-01-05T21:04:26.549Z,15.07
2023-01-05T21:07:01.388Z,10.53
2023-01-05T21:09:29.860Z,13.07
2023-01-05T21:11:57.532Z,11.33
2023-01-05T21:14:24.139Z,13.53
2023-01-05T21:16:53.057Z,14.73
2023-01-05T21:19:22.987Z,11.50
2023-01-05T21:21:52.500Z,8.37
2023-01-05T21:24:19.690Z,7.00
2023-01-05T21:26:46.300Z,16.37
2023-01-05T21:29:19.404Z,10.73
2023-01-05T21:31:46.292Z,11.73
2023-01-05T21:34:13.874Z,7.07
2023-01-05T21:36:44.839Z,8.97
2023-01-05T21:39:22.153Z,16.23
2023-01-05T21:42:09.180Z,14.37
2023-01-05T21:44:36.172Z,8.97
2023-01-05T21:47:05.656Z,9.23
2023-01-05T21:49:33.422Z,10.73
2023-01-05T21:52:18.489Z,13.17
2023-01-05T21:55:04.033Z,8.07
2023-01-05T21:57:30.696Z,10.67
2023-01-05T21:59:57.379Z,6.53
2023-01-05T22:02:23.978Z,11.90
2023-01-05T22:04:50.827Z,8.90
2023-01-05T22:07:17.435Z,15.97
2023-01-05T22:09:44.340Z,10.43
2023-01-05T22:12:11.017Z,7.47
2023-01-05T22:14:38.336Z,12.17
2023-01-05T22:17:06.561Z,16.37
2023-01-05T22:19:58.352Z,7.43
2023-01-05T22:22:25.048Z,12.97
2023-01-05T22:24:51.935Z,7.50
2023-01-05T22:27:18.630Z,10.47
2023-01-05T22:29:45.224Z,9.87
2023-01-05T22:32:11.838Z,9.87
2023-01-05T22:34:43.551Z,6.97
2023-01-05T22:37:10.240Z,15.07
2023-01-05T22:39:37.137Z,9.03
2023-01-05T22:42:03.811Z,8.00
2023-01-05T22:44:31.027Z,10.00
2023-01-05T22:46:57.954Z,7.37
2023-01-05T22:49:24.534Z,10.23
2023-01-05T22:51:51.449Z,15.43
2023-01-05T22:54:18.006Z,11.13
2023-01-05T22:56:44.600Z,13.13
2023-01-05T22:59:11.470Z,10.03
2023-01-05T23:01:43.281Z,7.70
2023-01-05T23:04:10.834Z,12.47
2023-01-05T23:06:37.563Z,13.30
2023-01-05T23:09:06.569Z,13.77
2023-01-05T23:11:36.628Z,9.03
2023-01-05T23:14:05.142Z,12.80
2023-01-05T23:16:33.584Z,10.27
2023-01-05T23:19:01.215Z,12.93
2023-01-05T23:21:27.895Z,9.73
2023-01-05T23:23:56.326Z,15.57
2023-01-05T23:26:24.359Z,11.70
2023-01-05T23:28:51.441Z,8.97
2023-01-05T23:31:19.213Z,9.43
2023-01-05T23:33:47.859Z,8.67
2023-01-05T23:36:16.294Z,9.63
2023-01-05T23:38:43.239Z,8.40
2023-01-05T23:41:11.703Z,8.03
2023-01-05T23:43:39.943Z,6.37
2023-01-05T23:46:16.537Z,6.57
2023-01-05T23:48:43.829Z,6.33
2023-01-05T23:51:13.532Z,4.00
2023-01-05T23:53:42.022Z,7.13
2023-01-05T23:56:11.069Z,4.27
2023-01-05T23:58:38.351Z,5.00
